Time;durP1;ratioP1;P1;durP2;ratioP2;P2;SDS_P1;SDS_P2;PMS_P1;PMS_P2;Temp;Humidity;BMP_temperature;BMP_pressure;BME280_temperature;BME280_humidity;BME280_pressure;Samples;Min_cycle;Max_cycle;Signal;HPM_P1;HPM_P2
2022/01/16 00:04:30;;;;;;;20.90;12.90;;;3.70;99.90;;;;;;5011383;28;20222;-74
2022/01/16 00:10:26;;;;;;;28.20;16.63;;;3.60;99.90;;;;;;5006863;28;20195;-74
2022/01/16 00:12:58;;;;;;;27.40;16.57;;;3.60;99.90;;;;;;5013698;28;20222;-75
2022/01/16 00:15:26;;;;;;;28.10;15.53;;;3.60;99.90;;;;;;5015444;28;20212;-75
2022/01/16 00:17:56;;;;;;;30.97;17.13;;;3.50;99.90;;;;;;5035350;28;20205;-74
2022/01/16 00:20:26;;;;;;;30.97;17.70;;;3.50;99.90;;;;;;5030846;28;20200;-74
2022/01/16 00:22:53;;;;;;;27.53;16.73;;;3.50;99.90;;;;;;5033551;28;20215;-74
2022/01/16 00:25:21;;;;;;;27.00;17.10;;;3.50;99.90;;;;;;5018843;28;20197;-74
2022/01/16 00:27:48;;;;;;;30.63;18.07;;;3.60;99.90;;;;;;5031330;28;20207;-75
2022/01/16 00:30:17;;;;;;;32.47;17.30;;;3.60;99.90;;;;;;5032512;28;20219;-74
2022/01/16 00:32:46;;;;;;;26.80;16.57;;;3.60;99.90;;;;;;5014662;28;20223;-75
2022/01/16 00:35:20;;;;;;;26.17;16.23;;;3.60;99.90;;;;;;5016296;28;20202;-75
2022/01/16 00:37:52;;;;;;;27.83;15.60;;;3.60;99.90;;;;;;5013359;28;20201;-74
2022/01/16 00:40:20;;;;;;;22.83;14.33;;;3.60;99.90;;;;;;5031877;28;20570;-74
2022/01/16 00:42:56;;;;;;;21.80;13.70;;;3.50;99.90;;;;;;5031905;28;20223;-74
2022/01/16 00:45:23;;;;;;;22.60;14.70;;;3.60;99.90;;;;;;5014743;28;20188;-74
2022/01/16 00:47:50;;;;;;;21.87;15.20;;;3.40;99.90;;;;;;5027546;28;20204;-74
2022/01/16 00:50:18;;;;;;;27.07;16.60;;;3.40;99.90;;;;;;5023529;28;20554;-74
2022/01/16 00:52:45;;;;;;;28.60;17.63;;;3.40;99.90;;;;;;5030975;28;20241;-74
2022/01/16 00:55:14;;;;;;;31.57;18.27;;;3.30;99.90;;;;;;5037724;28;20283;-74
2022/01/16 00:57:41;;;;;;;29.77;19.03;;;3.30;99.90;;;;;;5008292;28;20559;-75
2022/01/16 01:00:31;;;;;;;33.43;20.20;;;3.30;99.90;;;;;;5015899;28;20196;-74
2022/01/16 01:02:58;;;;;;;35.00;19.70;;;3.40;99.90;;;;;;5013384;28;20219;-75
2022/01/16 01:05:26;;;;;;;34.30;19.90;;;3.50;99.90;;;;;;5031383;28;20526;-75
2022/01/16 01:07:53;;;;;;;38.03;20.17;;;3.60;99.90;;;;;;5016390;28;20213;-75
2022/01/16 01:10:27;;;;;;;38.57;20.63;;;3.40;99.90;;;;;;5031116;28;20290;-74
2022/01/16 01:12:56;;;;;;;36.13;19.13;;;3.50;99.90;;;;;;5014215;28;20235;-74
2022/01/16 01:15:27;;;;;;;33.03;19.23;;;3.50;99.90;;;;;;5016107;28;20214;-74
2022/01/16 01:17:57;;;;;;;33.47;18.07;;;3.40;99.90;;;;;;5029642;28;20200;-74
2022/01/16 01:20:25;;;;;;;35.17;19.20;;;3.50;99.90;;;;;;5024133;28;20187;-74
2022/01/16 01:22:54;;;;;;;29.77;17.80;;;3.70;99.90;;;;;;5030620;28;20220;-74
2022/01/16 01:25:23;;;;;;;28.03;16.30;;;3.70;99.90;;;;;;5015158;28;20200;-75
2022/01/16 01:27:55;;;;;;;29.07;16.03;;;3.70;99.90;;;;;;5013944;28;20215;-74
2022/01/16 01:30:24;;;;;;;27.13;17.93;;;3.60;99.90;;;;;;5014865;28;20209;-75
2022/01/16 01:32:53;;;;;;;24.57;14.93;;;3.70;99.90;;;;;;5012437;28;20700;-74
2022/01/16 01:38:47;;;;;;;23.50;15.20;;;3.50;99.90;;;;;;5014107;28;20191;-74
2022/01/16 01:41:16;;;;;;;23.17;15.47;;;3.20;99.90;;;;;;5013273;28;20670;-74
2022/01/16 01:51:58;;;;;;;22.43;15.43;;;3.10;99.90;;;;;;5012042;28;20194;-74
2022/01/16 01:54:26;;;;;;;26.13;16.93;;;3.10;99.90;;;;;;5027462;28;20220;-74
2022/01/16 01:56:58;;;;;;;24.43;15.73;;;3.10;99.90;;;;;;5026710;28;20217;-74
2022/01/16 01:59:25;;;;;;;24.07;16.07;;;3.20;99.90;;;;;;5014127;28;20210;-74
2022/01/16 02:01:52;;;;;;;22.53;15.87;;;3.20;99.90;;;;;;5016992;28;20195;-74
2022/01/16 02:04:20;;;;;;;25.70;16.70;;;3.10;99.90;;;;;;5014576;28;20223;-74
2022/01/16 02:06:47;;;;;;;22.63;15.50;;;3.10;99.90;;;;;;5013651;28;20198;-74
2022/01/16 02:09:15;;;;;;;21.67;15.43;;;2.90;99.90;;;;;;5025437;28;20592;-74
2022/01/16 02:11:43;;;;;;;24.27;16.13;;;2.90;99.90;;;;;;5029941;28;20220;-74
2022/01/16 02:14:24;;;;;;;24.87;15.90;;;2.90;99.90;;;;;;5045414;28;20235;-74
2022/01/16 02:28:08;;;;;;;28.87;17.77;;;2.80;99.90;;;;;;5006392;28;20210;-74
2022/01/16 02:36:28;;;;;;;24.53;16.77;;;3.10;99.90;;;;;;5009030;28;20219;-74
2022/01/16 02:39:06;;;;;;;26.27;16.87;;;3.10;99.90;;;;;;5022520;28;20650;-74
2022/01/16 02:41:45;;;;;;;27.13;18.17;;;3.00;99.90;;;;;;5013969;28;22256;-74
2022/01/16 02:44:20;;;;;;;27.97;17.20;;;3.10;99.90;;;;;;5021407;28;20227;-74
2022/01/16 02:46:50;;;;;;;28.07;18.53;;;3.10;99.90;;;;;;5012165;28;20192;-74
2022/01/16 02:49:20;;;;;;;24.73;16.30;;;3.10;99.90;;;;;;5009973;28;20197;-74
2022/01/16 02:51:48;;;;;;;23.47;17.17;;;3.00;99.90;;;;;;5028483;28;20200;-74
2022/01/16 02:54:17;;;;;;;25.37;17.47;;;3.00;99.90;;;;;;5014916;28;20263;-74
2022/01/16 02:57:21;;;;;;;28.57;18.20;;;3.00;99.90;;;;;;5011465;28;20219;-74
2022/01/16 02:59:50;;;;;;;30.70;18.70;;;3.00;99.90;;;;;;5014061;28;20200;-74
2022/01/16 03:02:19;;;;;;;32.03;19.63;;;3.10;99.90;;;;;;5025225;28;20229;-74
2022/01/16 03:04:47;;;;;;;30.33;19.30;;;3.10;99.90;;;;;;5028347;28;20224;-74
2022/01/16 03:07:16;;;;;;;29.80;18.57;;;3.20;99.90;;;;;;5027518;28;20202;-74
2022/01/16 03:10:01;;;;;;;31.50;19.60;;;3.10;99.90;;;;;;5012373;28;20198;-74
2022/01/16 03:12:29;;;;;;;29.90;18.80;;;3.30;99.90;;;;;;5025004;28;20204;-74
2022/01/16 03:14:57;;;;;;;30.57;19.47;;;3.30;99.90;;;;;;5018819;28;20209;-74
2022/01/16 03:17:36;;;;;;;32.00;20.03;;;3.40;99.90;;;;;;5004583;28;20217;-74
2022/01/16 03:22:50;;;;;;;33.90;21.43;;;3.30;99.90;;;;;;5017550;28;20219;-74
2022/01/16 03:25:19;;;;;;;35.10;21.57;;;3.20;99.90;;;;;;5011230;28;20210;-74
2022/01/16 03:27:47;;;;;;;32.77;20.47;;;3.30;99.90;;;;;;5010989;28;20199;-74
2022/01/16 03:30:26;;;;;;;37.27;22.23;;;3.30;99.90;;;;;;5024945;28;20204;-74
2022/01/16 03:32:56;;;;;;;31.60;19.80;;;3.40;99.90;;;;;;5008987;28;20222;-74
2022/01/16 03:35:24;;;;;;;35.07;22.37;;;3.40;99.90;;;;;;5002659;28;20208;-74
2022/01/16 03:37:51;;;;;;;35.50;20.60;;;3.40;99.90;;;;;;5025538;28;20214;-74
2022/01/16 03:40:21;;;;;;;35.30;23.20;;;3.40;99.90;;;;;;5026519;28;20201;-74
2022/01/16 03:42:49;;;;;;;34.33;21.83;;;3.30;99.90;;;;;;5026089;28;20225;-74
2022/01/16 03:45:42;;;;;;;37.53;23.07;;;3.50;99.90;;;;;;5025161;28;20200;-74
2022/01/16 03:48:10;;;;;;;37.03;22.03;;;3.50;99.90;;;;;;5027115;28;20202;-74
2022/01/16 03:50:38;;;;;;;37.93;22.20;;;3.40;99.90;;;;;;5008861;28;20196;-74
2022/01/16 03:53:06;;;;;;;40.13;24.10;;;3.40;99.90;;;;;;5022820;28;20696;-74
2022/01/16 03:55:37;;;;;;;37.67;23.17;;;3.40;99.90;;;;;;5012006;28;20196;-74
2022/01/16 03:58:05;;;;;;;38.30;23.43;;;3.40;99.90;;;;;;5009644;28;20200;-74
2022/01/16 04:00:32;;;;;;;41.63;24.30;;;3.40;99.90;;;;;;5026902;28;20205;-74
2022/01/16 04:03:00;;;;;;;44.97;24.63;;;3.40;99.90;;;;;;5027250;28;20238;-74
2022/01/16 04:05:28;;;;;;;41.97;25.17;;;3.30;99.90;;;;;;5011411;28;20204;-74
2022/01/16 04:07:55;;;;;;;42.27;26.47;;;3.30;99.90;;;;;;5024417;28;20188;-74
2022/01/16 04:10:22;;;;;;;45.67;27.23;;;3.30;99.90;;;;;;5029344;28;20204;-74
2022/01/16 04:12:51;;;;;;;45.20;27.50;;;3.30;99.90;;;;;;5028067;28;20228;-74
2022/01/16 04:16:05;;;;;;;43.43;27.23;;;3.40;99.90;;;;;;5038330;28;20681;-74
2022/01/16 04:18:33;;;;;;;51.30;28.43;;;3.30;99.90;;;;;;5003654;28;20211;-74
2022/01/16 04:21:00;;;;;;;46.00;27.20;;;3.40;99.90;;;;;;5025875;28;20299;-74
2022/01/16 04:23:27;;;;;;;43.73;26.77;;;3.40;99.90;;;;;;5005410;28;20235;-74
2022/01/16 04:26:00;;;;;;;47.70;29.37;;;3.40;99.90;;;;;;5034108;28;20194;-74
2022/01/16 04:28:31;;;;;;;45.43;29.20;;;3.40;99.90;;;;;;5012623;28;20188;-74
2022/01/16 04:30:59;;;;;;;48.83;31.30;;;3.40;99.90;;;;;;5014867;28;20196;-74
2022/01/16 04:33:26;;;;;;;45.97;28.13;;;3.30;99.90;;;;;;5027170;28;20220;-75
2022/01/16 04:35:55;;;;;;;46.13;28.37;;;3.30;99.90;;;;;;5007044;28;20196;-74
2022/01/16 04:38:23;;;;;;;47.17;30.90;;;3.40;99.90;;;;;;5033716;28;20578;-74
2022/01/16 04:43:51;;;;;;;52.77;28.07;;;3.20;99.90;;;;;;5014820;28;20213;-74
2022/01/16 04:46:22;;;;;;;53.07;30.80;;;3.20;99.90;;;;;;5030048;28;20202;-74
2022/01/16 04:48:51;;;;;;;52.00;33.30;;;3.20;99.90;;;;;;5014597;28;20200;-74
2022/01/16 04:51:20;;;;;;;52.87;31.77;;;3.20;99.90;;;;;;5014820;28;20196;-74
2022/01/16 04:53:48;;;;;;;54.53;31.23;;;3.20;99.90;;;;;;5012201;28;20223;-74
2022/01/16 04:56:16;;;;;;;58.40;33.87;;;3.10;99.90;;;;;;5027714;28;20200;-74
2022/01/16 04:58:45;;;;;;;58.43;32.60;;;3.20;99.90;;;;;;5028276;28;20201;-74
2022/01/16 05:01:13;;;;;;;61.33;33.10;;;3.20;99.90;;;;;;5011482;28;20667;-74
2022/01/16 05:03:40;;;;;;;62.03;34.93;;;3.10;99.90;;;;;;5008923;28;20226;-74
2022/01/16 05:06:10;;;;;;;60.33;35.17;;;3.10;99.90;;;;;;5025583;28;20671;-74
2022/01/16 05:08:37;;;;;;;56.43;33.67;;;3.00;99.90;;;;;;5035165;28;20674;-74
2022/01/16 05:11:06;;;;;;;56.77;34.07;;;3.20;99.90;;;;;;5018716;28;20183;-74
2022/01/16 05:16:37;;;;;;;53.83;33.73;;;3.30;99.90;;;;;;5028593;28;20196;-74
2022/01/16 05:19:10;;;;;;;59.43;35.23;;;3.20;99.90;;;;;;5015175;28;20199;-74
2022/01/16 05:21:38;;;;;;;62.47;36.27;;;3.20;99.90;;;;;;5013505;28;20225;-74
2022/01/16 05:24:09;;;;;;;63.43;35.77;;;3.10;99.90;;;;;;5027079;28;20247;-74
2022/01/16 05:26:39;;;;;;;59.43;33.90;;;3.10;99.90;;;;;;5019843;28;20191;-74
2022/01/16 05:29:06;;;;;;;60.07;35.27;;;3.20;99.90;;;;;;5013770;28;20694;-74
2022/01/16 05:31:35;;;;;;;60.63;34.83;;;3.20;99.90;;;;;;5030424;28;20578;-74
2022/01/16 05:34:02;;;;;;;61.50;33.93;;;3.30;99.90;;;;;;5004976;28;20220;-74
2022/01/16 05:36:30;;;;;;;58.40;33.07;;;3.20;99.90;;;;;;5013116;28;20198;-74
2022/01/16 05:38:57;;;;;;;67.00;35.67;;;3.10;99.90;;;;;;5030241;28;20203;-74
2022/01/16 05:41:29;;;;;;;65.57;35.00;;;3.20;99.90;;;;;;5019513;28;20205;-74
2022/01/16 05:43:57;;;;;;;63.13;35.20;;;3.20;99.90;;;;;;5033424;28;20231;-74
2022/01/16 05:46:27;;;;;;;58.03;35.70;;;3.30;99.90;;;;;;5007925;28;20250;-74
2022/01/16 05:48:55;;;;;;;64.67;34.87;;;3.20;99.90;;;;;;5030194;28;20553;-74
2022/01/16 05:51:23;;;;;;;60.97;34.70;;;3.20;99.90;;;;;;5028813;28;20227;-74
2022/01/16 05:53:51;;;;;;;64.80;36.60;;;3.20;99.90;;;;;;5026790;28;20228;-74
2022/01/16 05:56:18;;;;;;;67.00;37.07;;;3.10;99.90;;;;;;5013627;28;20206;-74
2022/01/16 05:58:46;;;;;;;65.93;38.67;;;3.20;99.90;;;;;;5036073;28;20228;-74
2022/01/16 06:01:15;;;;;;;70.00;37.40;;;3.20;99.90;;;;;;5014906;28;20209;-74
2022/01/16 06:03:42;;;;;;;69.03;36.50;;;3.20;99.90;;;;;;5012583;28;20685;-74
2022/01/16 06:06:11;;;;;;;64.97;35.77;;;3.30;99.90;;;;;;5014461;28;20199;-74
2022/01/16 06:08:39;;;;;;;66.13;37.30;;;3.20;99.90;;;;;;5028751;28;20212;-74
2022/01/16 06:11:06;;;;;;;66.13;35.83;;;3.30;99.90;;;;;;5017288;28;20203;-74
2022/01/16 06:13:34;;;;;;;65.63;36.13;;;3.30;99.90;;;;;;5028645;28;20246;-74
2022/01/16 06:16:02;;;;;;;68.33;37.53;;;3.30;99.90;;;;;;5029768;28;20195;-74
2022/01/16 06:18:29;;;;;;;68.30;38.20;;;3.30;99.90;;;;;;5029559;28;20685;-74
2022/01/16 06:20:57;;;;;;;71.70;40.20;;;3.30;99.90;;;;;;5015844;28;20230;-74
2022/01/16 06:23:25;;;;;;;69.73;39.83;;;3.30;99.90;;;;;;5012638;28;20570;-74
2022/01/16 06:25:54;;;;;;;69.73;39.93;;;3.30;99.90;;;;;;5016214;28;20206;-74
2022/01/16 06:28:22;;;;;;;65.77;38.77;;;3.40;99.90;;;;;;5025320;28;20211;-74
2022/01/16 06:30:50;;;;;;;77.03;41.20;;;3.50;99.90;;;;;;5014002;28;20188;-74
2022/01/16 06:33:17;;;;;;;74.03;40.30;;;3.40;99.90;;;;;;5021598;28;20231;-74
2022/01/16 06:35:44;;;;;;;73.77;39.80;;;3.30;99.90;;;;;;5025340;28;20217;-74
2022/01/16 06:38:12;;;;;;;72.63;39.57;;;3.40;99.90;;;;;;5011580;28;20218;-74
2022/01/16 06:40:40;;;;;;;71.20;39.97;;;3.40;99.90;;;;;;5000455;28;20204;-74
2022/01/16 06:43:08;;;;;;;71.77;40.67;;;3.40;99.90;;;;;;5013797;28;20231;-74
2022/01/16 06:45:35;;;;;;;69.47;39.87;;;3.40;99.90;;;;;;5026291;28;20211;-74
2022/01/16 06:48:06;;;;;;;71.43;40.13;;;3.40;99.90;;;;;;5028143;28;20200;-74
2022/01/16 06:50:34;;;;;;;68.70;38.47;;;3.40;99.90;;;;;;5027774;28;20216;-74
2022/01/16 06:53:01;;;;;;;68.30;40.67;;;3.40;99.90;;;;;;5011887;28;20226;-74
2022/01/16 06:55:28;;;;;;;72.27;41.77;;;3.50;99.90;;;;;;5027724;28;20204;-74
2022/01/16 06:57:57;;;;;;;71.07;39.43;;;3.50;99.90;;;;;;5011639;28;20213;-74
2022/01/16 07:00:25;;;;;;;72.27;41.50;;;3.50;99.90;;;;;;5022371;28;20204;-74
2022/01/16 07:02:52;;;;;;;65.57;39.90;;;3.50;99.90;;;;;;5013879;28;20216;-74
2022/01/16 07:05:19;;;;;;;66.73;38.40;;;3.50;99.90;;;;;;5004032;28;20209;-77
2022/01/16 07:07:47;;;;;;;73.23;41.83;;;3.50;99.90;;;;;;5035746;28;20203;-76
2022/01/16 07:10:14;;;;;;;72.13;43.13;;;3.50;99.90;;;;;;5002818;28;20219;-72
2022/01/16 07:12:41;;;;;;;54.37;32.70;;;3.50;99.90;;;;;;5021442;28;20216;-75
2022/01/16 07:15:11;;;;;;;70.37;40.83;;;3.50;99.90;;;;;;5022766;28;20209;-75
2022/01/16 07:17:42;;;;;;;72.87;42.80;;;3.50;99.90;;;;;;5010617;28;20221;-75
2022/01/16 07:20:15;;;;;;;70.30;40.10;;;3.50;99.90;;;;;;5042110;28;20201;-75
2022/01/16 07:22:43;;;;;;;71.10;42.07;;;3.50;99.90;;;;;;4997833;28;20582;-75
2022/01/16 07:25:12;;;;;;;71.17;40.70;;;3.60;99.90;;;;;;5006787;28;20204;-74
2022/01/16 07:27:40;;;;;;;70.50;40.17;;;3.60;99.90;;;;;;5022079;28;20199;-75
2022/01/16 07:30:15;;;;;;;68.60;40.63;;;3.70;99.90;;;;;;5018025;28;20215;-75
2022/01/16 07:32:51;;;;;;;63.93;38.13;;;3.60;99.90;;;;;;5004627;28;20226;-73
2022/01/16 07:35:22;;;;;;;69.07;39.97;;;3.60;99.90;;;;;;5009790;28;20213;-73
2022/01/16 07:37:52;;;;;;;67.70;40.13;;;3.70;99.90;;;;;;5025133;28;20212;-73
2022/01/16 07:40:28;;;;;;;67.33;38.30;;;3.70;99.90;;;;;;5008292;28;20204;-73
2022/01/16 07:42:59;;;;;;;69.00;41.07;;;3.70;99.90;;;;;;5009521;28;20218;-73
2022/01/16 07:45:32;;;;;;;72.37;41.43;;;3.80;99.90;;;;;;5018748;28;20199;-73
2022/01/16 07:48:01;;;;;;;63.97;42.83;;;3.80;99.90;;;;;;5020104;28;20580;-73
2022/01/16 07:50:35;;;;;;;67.60;40.00;;;3.70;99.90;;;;;;5010520;28;20189;-73
2022/01/16 07:53:06;;;;;;;68.13;42.07;;;3.80;99.90;;;;;;5025038;28;20227;-73
2022/01/16 07:55:42;;;;;;;67.40;41.80;;;3.70;99.90;;;;;;5006474;28;20199;-73
2022/01/16 07:58:12;;;;;;;69.70;39.90;;;3.70;99.90;;;;;;5008174;28;20213;-73
2022/01/16 08:00:40;;;;;;;68.00;40.23;;;3.70;99.90;;;;;;5016853;28;20231;-73
2022/01/16 08:03:08;;;;;;;72.57;39.67;;;3.80;99.90;;;;;;5004750;28;20230;-73
2022/01/16 08:05:35;;;;;;;66.73;41.20;;;3.80;99.90;;;;;;5026287;28;20669;-72
2022/01/16 08:08:03;;;;;;;64.27;37.00;;;3.80;99.90;;;;;;5007377;28;20196;-73
2022/01/16 08:10:31;;;;;;;73.40;43.33;;;3.70;99.90;;;;;;5016498;28;20574;-73
2022/01/16 08:12:59;;;;;;;66.53;40.33;;;3.80;99.90;;;;;;5023126;28;20227;-73
2022/01/16 08:15:27;;;;;;;76.50;42.40;;;3.80;99.90;;;;;;5012006;28;20199;-73
2022/01/16 08:17:55;;;;;;;65.40;39.63;;;3.80;99.90;;;;;;5024916;28;20196;-73
2022/01/16 08:20:23;;;;;;;66.03;39.87;;;3.80;99.90;;;;;;5004722;28;20206;-73
2022/01/16 08:22:50;;;;;;;68.10;41.57;;;3.80;99.90;;;;;;5025231;28;20223;-73
2022/01/16 08:25:18;;;;;;;69.47;42.73;;;3.80;99.90;;;;;;5025255;28;20207;-73
2022/01/16 08:27:48;;;;;;;68.73;44.20;;;3.90;99.90;;;;;;5020463;28;20585;-73
2022/01/16 08:30:16;;;;;;;69.63;42.00;;;3.90;99.90;;;;;;5040257;28;20201;-73
2022/01/16 08:32:44;;;;;;;73.97;44.63;;;3.80;99.90;;;;;;5022778;28;20769;-75
2022/01/16 08:35:14;;;;;;;72.83;42.37;;;3.80;99.90;;;;;;5014127;28;20582;-75
2022/01/16 08:37:41;;;;;;;68.00;40.00;;;3.90;99.90;;;;;;5013812;28;20196;-74
2022/01/16 08:40:10;;;;;;;70.57;44.13;;;3.90;99.90;;;;;;5012863;28;20219;-76
2022/01/16 08:42:40;;;;;;;65.00;40.97;;;3.90;99.90;;;;;;5013450;28;20227;-75
2022/01/16 08:45:08;;;;;;;63.47;40.23;;;3.90;99.90;;;;;;5017741;28;20195;-75
2022/01/16 08:47:35;;;;;;;70.20;42.43;;;3.90;99.90;;;;;;5036763;28;20222;-75
2022/01/16 08:50:04;;;;;;;74.00;43.30;;;3.90;99.90;;;;;;4996412;28;20669;-74
2022/01/16 08:52:33;;;;;;;66.33;41.53;;;4.00;99.90;;;;;;5021188;28;20200;-75
2022/01/16 08:55:01;;;;;;;67.93;40.70;;;4.00;99.90;;;;;;5025305;28;20196;-75
2022/01/16 08:57:29;;;;;;;69.33;42.43;;;4.00;99.90;;;;;;5017431;22;20223;-76
2022/01/16 08:59:56;;;;;;;71.17;44.97;;;4.00;99.90;;;;;;5009242;28;20220;-77
2022/01/16 09:02:24;;;;;;;72.47;43.27;;;4.00;99.90;;;;;;5013214;28;20203;-77
2022/01/16 09:04:51;;;;;;;66.47;41.13;;;4.10;99.90;;;;;;5002508;28;20203;-77
2022/01/16 09:07:20;;;;;;;71.83;40.13;;;4.10;99.90;;;;;;4993446;28;20216;-76
2022/01/16 09:09:48;;;;;;;68.20;40.53;;;4.10;99.90;;;;;;5010014;28;20215;-77
2022/01/16 09:12:16;;;;;;;64.87;40.13;;;4.10;99.90;;;;;;5014359;28;20814;-77
2022/01/16 09:14:43;;;;;;;67.07;43.33;;;4.10;99.90;;;;;;5014819;28;20545;-77
2022/01/16 09:17:10;;;;;;;66.93;41.10;;;4.20;99.90;;;;;;5013561;28;20232;-77
2022/01/16 09:19:38;;;;;;;63.30;40.50;;;4.20;99.90;;;;;;5030331;28;20211;-77
2022/01/16 09:22:05;;;;;;;67.03;40.47;;;4.20;99.90;;;;;;5031601;28;20211;-75
2022/01/16 09:24:33;;;;;;;62.43;39.93;;;4.20;99.90;;;;;;5021890;28;20200;-77
2022/01/16 09:27:02;;;;;;;64.07;41.27;;;4.30;99.90;;;;;;5013488;28;20589;-76
2022/01/16 09:29:30;;;;;;;59.27;39.27;;;4.30;99.90;;;;;;5013506;28;20574;-77
2022/01/16 09:31:58;;;;;;;64.13;39.30;;;4.30;99.90;;;;;;5014756;28;20197;-76
2022/01/16 09:34:25;;;;;;;65.93;40.30;;;4.30;99.90;;;;;;5014387;28;20210;-77
2022/01/16 09:36:52;;;;;;;58.17;36.47;;;4.40;99.90;;;;;;4999695;28;20223;-77
2022/01/16 09:39:20;;;;;;;62.37;37.63;;;4.30;99.90;;;;;;4997541;28;20223;-77
2022/01/16 09:41:47;;;;;;;60.17;37.80;;;4.40;99.90;;;;;;5011648;28;20211;-77
2022/01/16 09:44:17;;;;;;;60.73;37.97;;;4.40;99.90;;;;;;4998668;28;20227;-76
2022/01/16 09:46:44;;;;;;;62.30;38.27;;;4.40;99.90;;;;;;5011350;28;20218;-77
2022/01/16 09:49:36;;;;;;;60.50;38.33;;;4.50;99.90;;;;;;5003007;28;20177;-77
2022/01/16 09:52:33;;;;;;;62.10;38.13;;;4.50;99.90;;;;;;5006215;28;20209;-76
2022/01/16 09:55:51;;;;;;;58.83;38.50;;;4.50;99.90;;;;;;5016601;28;20208;-76
2022/01/16 09:58:27;;;;;;;59.03;37.67;;;4.50;99.90;;;;;;5012755;28;20212;-76
2022/01/16 10:00:59;;;;;;;61.53;38.67;;;4.60;99.90;;;;;;5014418;28;20199;-76
2022/01/16 10:03:37;;;;;;;57.50;38.33;;;4.50;99.90;;;;;;5015639;28;20201;-75
2022/01/16 10:06:11;;;;;;;56.30;37.33;;;4.50;99.90;;;;;;5002640;28;20196;-76
2022/01/16 10:08:39;;;;;;;60.60;37.90;;;4.60;99.90;;;;;;5008851;28;20195;-76
2022/01/16 10:11:30;;;;;;;57.87;35.60;;;4.60;99.90;;;;;;4999658;28;20223;-76
2022/01/16 10:14:15;;;;;;;54.73;35.73;;;4.60;99.90;;;;;;4995525;28;20200;-76
2022/01/16 10:16:46;;;;;;;56.17;36.80;;;4.60;99.90;;;;;;5013520;28;20704;-76
2022/01/16 10:19:21;;;;;;;58.47;36.47;;;4.60;99.90;;;;;;5010412;28;20383;-76
2022/01/16 10:21:50;;;;;;;58.43;36.77;;;4.70;99.90;;;;;;5012984;28;20218;-76
2022/01/16 10:24:21;;;;;;;51.43;34.07;;;4.70;99.90;;;;;;5013407;28;20205;-76
2022/01/16 10:26:50;;;;;;;51.40;34.37;;;4.70;99.90;;;;;;5015622;28;20218;-76
2022/01/16 10:29:20;;;;;;;53.73;33.70;;;4.70;99.90;;;;;;5008407;28;20197;-76
2022/01/16 10:31:50;;;;;;;53.03;34.07;;;4.80;99.90;;;;;;5015252;28;20193;-82
2022/01/16 10:34:31;;;;;;;52.77;32.93;;;4.80;99.90;;;;;;5009497;28;20205;-75
2022/01/16 10:37:00;;;;;;;50.43;31.60;;;4.80;99.90;;;;;;5013798;28;20238;-73
2022/01/16 10:39:27;;;;;;;52.77;35.73;;;4.80;99.90;;;;;;5012755;28;20664;-76
2022/01/16 10:42:18;;;;;;;50.30;33.20;;;4.80;99.90;;;;;;5009330;28;20211;-76
2022/01/16 10:44:59;;;;;;;52.83;32.50;;;4.90;99.90;;;;;;5005902;28;20684;-76
2022/01/16 10:47:31;;;;;;;52.77;32.03;;;4.90;99.90;;;;;;5017919;28;20223;-76
2022/01/16 10:50:01;;;;;;;53.93;34.30;;;4.90;99.90;;;;;;4998878;28;20194;-76
2022/01/16 10:52:30;;;;;;;51.93;31.83;;;4.90;99.90;;;;;;5008136;28;20199;-76
2022/01/16 10:55:06;;;;;;;49.53;31.10;;;4.90;99.90;;;;;;5006383;28;20664;-75
2022/01/16 10:57:34;;;;;;;53.70;34.30;;;5.00;99.90;;;;;;5016116;28;20226;-76
2022/01/16 11:00:08;;;;;;;48.13;30.80;;;5.00;99.90;;;;;;5001773;28;20564;-75
2022/01/16 11:02:48;;;;;;;48.60;31.87;;;5.00;99.90;;;;;;5006692;28;20194;-76
2022/01/16 11:05:18;;;;;;;52.77;32.43;;;5.10;99.90;;;;;;5008098;28;20207;-76
2022/01/16 11:07:47;;;;;;;52.43;32.10;;;5.00;99.90;;;;;;5007915;28;20226;-77
2022/01/16 11:10:23;;;;;;;46.40;31.33;;;5.10;99.90;;;;;;5006339;28;20423;-74
2022/01/16 11:12:52;;;;;;;44.40;31.63;;;5.10;99.90;;;;;;5010351;28;20196;-77
2022/01/16 11:15:20;;;;;;;47.57;30.37;;;5.10;99.90;;;;;;5007720;28;20211;-76
2022/01/16 11:17:49;;;;;;;45.53;30.40;;;5.10;99.90;;;;;;5010159;28;20585;-77
2022/01/16 11:20:26;;;;;;;45.10;30.07;;;5.10;99.90;;;;;;5013977;28;20207;-76
2022/01/16 11:23:00;;;;;;;47.93;31.73;;;5.20;99.90;;;;;;5004785;28;20210;-77
2022/01/16 11:25:33;;;;;;;48.43;30.57;;;5.20;99.90;;;;;;5003258;28;20210;-77
2022/01/16 11:28:05;;;;;;;47.90;30.67;;;5.30;99.90;;;;;;5007955;28;20227;-76
2022/01/16 11:31:01;;;;;;;50.10;31.60;;;5.30;99.90;;;;;;5007276;28;20208;-77
2022/01/16 11:33:32;;;;;;;47.20;29.13;;;5.30;99.90;;;;;;4998970;28;20200;-76
2022/01/16 11:36:03;;;;;;;44.40;30.60;;;5.30;99.90;;;;;;5011418;28;20203;-76
2022/01/16 11:38:33;;;;;;;47.67;29.50;;;5.30;99.90;;;;;;5010767;28;20199;-77
2022/01/16 11:41:04;;;;;;;47.07;31.37;;;5.30;99.90;;;;;;5021490;28;20224;-76
2022/01/16 11:43:35;;;;;;;51.07;32.50;;;5.20;99.90;;;;;;5007123;28;20219;-76
2022/01/16 11:46:12;;;;;;;49.17;32.17;;;5.30;99.90;;;;;;5005944;28;20203;-76
2022/01/16 11:48:51;;;;;;;59.30;34.63;;;5.20;99.90;;;;;;5003022;28;20578;-76
2022/01/16 11:51:59;;;;;;;48.40;33.27;;;5.30;99.90;;;;;;4999478;28;20194;-76
2022/01/16 11:54:28;;;;;;;50.73;31.60;;;5.30;99.90;;;;;;5006889;28;20203;-76
2022/01/16 11:57:02;;;;;;;50.43;33.00;;;5.30;99.90;;;;;;5006233;28;20230;-76
2022/01/16 11:59:38;;;;;;;52.07;31.70;;;5.40;99.90;;;;;;5003171;28;20202;-76
2022/01/16 12:02:18;;;;;;;53.17;33.40;;;5.40;99.90;;;;;;4996622;28;20191;-77
2022/01/16 12:05:06;;;;;;;54.00;33.27;;;5.40;99.90;;;;;;5009583;28;20302;-76
2022/01/16 12:08:10;;;;;;;52.87;33.77;;;5.30;99.90;;;;;;5008741;28;20223;-76
2022/01/16 12:10:50;;;;;;;57.10;35.03;;;5.40;99.90;;;;;;5013442;28;20202;-76
2022/01/16 12:13:44;;;;;;;56.43;35.33;;;5.40;99.90;;;;;;5012029;28;20198;-76
2022/01/16 12:16:40;;;;;;;56.07;34.77;;;5.30;99.90;;;;;;5005564;28;20195;-77
2022/01/16 12:19:45;;;;;;;57.03;35.97;;;5.30;99.90;;;;;;5011654;28;20711;-76
2022/01/16 12:22:17;;;;;;;55.37;33.87;;;5.40;99.90;;;;;;5026283;28;20200;-77
2022/01/16 12:25:04;;;;;;;51.53;31.93;;;5.40;99.90;;;;;;5011441;28;20208;-75
2022/01/16 12:27:47;;;;;;;55.40;33.67;;;5.40;99.90;;;;;;5022110;28;20223;-77
2022/01/16 12:30:50;;;;;;;57.57;34.57;;;5.40;99.90;;;;;;5015005;28;20188;-77
2022/01/16 12:33:29;;;;;;;58.70;35.43;;;5.50;99.90;;;;;;5010698;28;20190;-77
2022/01/16 12:36:12;;;;;;;57.00;34.77;;;5.50;99.90;;;;;;5008680;28;20207;-76
2022/01/16 12:39:11;;;;;;;56.57;33.63;;;5.50;99.90;;;;;;5013126;28;20196;-77
2022/01/16 12:41:43;;;;;;;62.83;36.23;;;5.50;99.90;;;;;;5010060;28;20231;-77
2022/01/16 12:44:13;;;;;;;59.03;35.53;;;5.60;99.90;;;;;;5009401;28;20571;-76
2022/01/16 12:46:43;;;;;;;58.47;35.93;;;5.60;99.90;;;;;;5014132;28;20235;-77
2022/01/16 12:49:13;;;;;;;63.17;36.37;;;5.50;99.90;;;;;;5012568;28;20199;-77
2022/01/16 12:51:42;;;;;;;55.83;33.67;;;5.60;99.90;;;;;;5006176;28;20201;-76
2022/01/16 12:54:13;;;;;;;52.83;33.07;;;5.50;99.90;;;;;;5002500;28;20200;-77
2022/01/16 12:56:43;;;;;;;58.53;33.30;;;5.50;99.90;;;;;;5014620;28;20227;-77
2022/01/16 12:59:14;;;;;;;52.40;33.27;;;5.50;99.90;;;;;;5005664;28;20605;-77
2022/01/16 13:01:52;;;;;;;60.77;35.50;;;5.50;99.90;;;;;;5009655;28;20207;-77
2022/01/16 13:04:31;;;;;;;60.33;35.50;;;5.50;99.90;;;;;;5004546;28;20214;-77
2022/01/16 13:07:00;;;;;;;58.00;34.70;;;5.50;99.90;;;;;;5009338;28;20219;-77
2022/01/16 13:09:30;;;;;;;62.03;35.03;;;5.50;99.90;;;;;;5002368;28;20204;-77
2022/01/16 13:12:00;;;;;;;58.83;35.33;;;5.50;99.90;;;;;;5006457;28;20188;-77
2022/01/16 13:14:34;;;;;;;57.67;35.17;;;5.50;99.90;;;;;;5015132;28;20211;-77
2022/01/16 13:17:05;;;;;;;62.93;33.80;;;5.50;99.90;;;;;;5008930;28;20220;-75
2022/01/16 13:19:39;;;;;;;58.07;30.47;;;5.50;99.90;;;;;;5013456;28;20193;-77
2022/01/16 13:22:11;;;;;;;56.20;33.67;;;5.50;99.90;;;;;;5002504;28;20553;-77
2022/01/16 13:24:51;;;;;;;65.53;35.10;;;5.50;99.90;;;;;;5003588;28;20201;-77
2022/01/16 13:27:33;;;;;;;57.07;32.77;;;5.40;99.90;;;;;;5007158;28;20224;-77
2022/01/16 13:30:03;;;;;;;57.13;33.70;;;5.50;99.90;;;;;;5003355;28;20195;-76
2022/01/16 13:32:33;;;;;;;53.60;31.27;;;5.50;99.90;;;;;;5027177;28;20200;-77
2022/01/16 13:35:21;;;;;;;57.10;32.97;;;5.50;99.90;;;;;;5010221;28;20211;-76
2022/01/16 13:37:52;;;;;;;61.30;36.13;;;5.40;99.90;;;;;;5004557;28;20237;-76
2022/01/16 13:40:24;;;;;;;60.83;35.87;;;5.50;99.90;;;;;;5002339;28;20211;-77
2022/01/16 13:43:02;;;;;;;59.30;34.37;;;5.40;99.90;;;;;;5002864;28;20203;-75